Time;durP1;ratioP1;P1;durP2;ratioP2;P2;SDS_P1;SDS_P2;PMS_P1;PMS_P2;Temp;Humidity;BMP_temperature;BMP_pressure;BME280_temperature;BME280_humidity;BME280_pressure;Samples;Min_cycle;Max_cycle;Signal;HPM_P1;HPM_P2
2023/12/19 00:00:05;;;;;;;5.00;3.13;;;;;;;4.71;60.83;96311.72;6218082;23;20075;-86
2023/12/19 00:02:30;;;;;;;3.63;2.63;;;;;;;4.84;60.50;96298.75;6217469;23;20012;-86
2023/12/19 00:04:55;;;;;;;4.15;2.85;;;;;;;5.28;58.59;96313.41;6217224;23;20050;-86
2023/12/19 00:07:21;;;;;;;4.00;2.42;;;;;;;5.66;57.78;96313.97;6192872;23;20009;-86
2023/12/19 00:09:46;;;;;;;6.07;2.92;;;;;;;5.55;57.35;96298.50;6177735;23;20045;-86
2023/12/19 00:12:12;;;;;;;3.72;2.80;;;;;;;5.36;57.79;96309.44;6157291;23;20048;-85
2023/12/19 00:14:38;;;;;;;4.97;2.88;;;;;;;5.32;58.48;96303.69;6133071;23;20008;-86
2023/12/19 00:17:03;;;;;;;4.28;3.10;;;;;;;5.35;57.59;96306.03;6182147;23;20080;-86
2023/12/19 00:19:29;;;;;;;3.83;2.92;;;;;;;5.36;58.18;96306.84;6157617;23;20005;-86
2023/12/19 00:21:56;;;;;;;4.15;2.78;;;;;;;5.36;57.65;96297.34;6182936;23;20013;-87
2023/12/19 00:24:21;;;;;;;4.28;2.80;;;;;;;5.28;57.17;96297.13;6157986;23;20033;-86
2023/12/19 00:26:47;;;;;;;7.30;3.22;;;;;;;5.03;57.73;96275.78;6133143;23;20056;-87
2023/12/19 00:29:13;;;;;;;6.20;3.10;;;;;;;5.33;58.30;96282.13;6182409;23;20028;-86
2023/12/19 00:31:39;;;;;;;3.67;2.80;;;;;;;5.61;56.95;96283.34;6134808;23;20013;-86
2023/12/19 00:34:06;;;;;;;3.10;2.58;;;;;;;5.55;57.47;96275.28;6184616;23;20011;-86
2023/12/19 00:36:32;;;;;;;3.88;2.70;;;;;;;5.49;57.76;96272.22;6159710;23;20095;-86
2023/12/19 00:38:57;;;;;;;3.95;2.63;;;;;;;5.65;56.93;96264.13;6134990;23;20040;-86
2023/12/19 00:41:23;;;;;;;4.78;2.60;;;;;;;5.56;57.17;96264.00;6134731;23;20017;-86
2023/12/19 00:43:50;;;;;;;3.33;2.45;;;;;;;5.47;57.33;96255.25;6135070;23;20013;-86
2023/12/19 00:46:15;;;;;;;4.65;2.70;;;;;;;5.46;57.57;96254.44;6183850;23;20005;-86
2023/12/19 00:48:42;;;;;;;3.42;2.50;;;;;;;5.65;56.41;96243.47;6159264;23;20004;-86
2023/12/19 00:51:11;;;;;;;5.28;2.40;;;;;;;5.67;55.82;96228.69;6135954;23;20016;-86
2023/12/19 00:53:36;;;;;;;3.67;2.10;;;;;;;5.65;56.06;96227.16;6183908;23;20008;-86
2023/12/19 00:56:07;;;;;;;3.60;2.10;;;;;;;5.66;56.31;96221.06;6184043;23;20001;-86
2023/12/19 00:58:33;;;;;;;2.33;2.03;;;;;;;5.82;55.53;96213.72;6159912;23;20017;-86
2023/12/19 01:00:59;;;;;;;2.95;2.03;;;;;;;5.96;55.17;96198.91;6159503;23;19997;-86
2023/12/19 01:03:25;;;;;;;3.92;2.13;;;;;;;6.21;54.56;96214.03;6159181;23;20007;-87
2023/12/19 01:05:54;;;;;;;2.28;1.92;;;;;;;6.29;54.18;96205.66;6159209;23;20013;-86
2023/12/19 01:08:20;;;;;;;2.90;2.10;;;;;;;6.33;54.29;96196.72;6183496;23;20025;-86
2023/12/19 01:10:45;;;;;;;2.53;1.92;;;;;;;6.36;54.71;96203.38;6159059;23;20016;-87
2023/12/19 01:13:11;;;;;;;4.45;2.20;;;;;;;6.13;54.60;96208.69;6184383;23;20005;-86
2023/12/19 01:15:36;;;;;;;2.90;2.30;;;;;;;6.11;55.27;96200.25;6158839;23;20009;-86
2023/12/19 01:18:02;;;;;;;3.33;2.20;;;;;;;6.31;54.79;96198.59;6159437;23;20016;-86
2023/12/19 01:20:29;;;;;;;2.88;2.10;;;;;;;6.32;54.27;96179.59;6134512;23;20088;-86
2023/12/19 01:22:54;;;;;;;2.72;2.05;;;;;;;6.11;54.62;96182.19;6159093;23;20024;-86
2023/12/19 01:25:20;;;;;;;2.13;1.58;;;;;;;6.38;53.94;96179.06;6158885;23;20017;-86
2023/12/19 01:27:45;;;;;;;1.92;1.40;;;;;;;6.31;53.95;96179.69;6183246;23;20011;-87
2023/12/19 01:30:11;;;;;;;1.23;0.90;;;;;;;6.39;53.43;96187.63;6182006;23;20076;-86
2023/12/19 01:32:36;;;;;;;1.13;1.00;;;;;;;6.38;53.43;96189.41;6158350;23;20009;-86
2023/12/19 01:35:02;;;;;;;1.40;1.00;;;;;;;6.34;53.32;96182.00;6183757;23;20009;-86
2023/12/19 01:37:27;;;;;;;1.17;0.85;;;;;;;6.61;52.86;96187.47;6158711;23;20017;-86
2023/12/19 01:39:53;;;;;;;1.48;0.85;;;;;;;6.50;53.02;96182.38;6134185;23;20012;-86
2023/12/19 01:42:18;;;;;;;1.33;0.70;;;;;;;6.80;51.99;96204.03;6134342;23;20065;-86
2023/12/19 01:45:09;;;;;;;0.98;0.80;;;;;;;6.87;51.98;96212.88;6158814;23;20013;-86
2023/12/19 01:47:35;;;;;;;1.60;0.85;;;;;;;6.79;52.36;96221.28;6158896;23;20009;-87
2023/12/19 01:50:00;;;;;;;1.40;0.80;;;;;;;6.70;53.09;96219.50;6134073;23;20009;-86
2023/12/19 01:52:29;;;;;;;0.70;0.70;;;;;;;6.55;53.09;96213.84;6158757;23;20032;-86
2023/12/19 01:54:54;;;;;;;1.77;1.00;;;;;;;6.41;53.10;96212.38;6159328;23;20075;-86
2023/12/19 01:57:20;;;;;;;1.20;1.00;;;;;;;6.48;53.25;96230.00;6134067;23;20005;-86
2023/12/19 01:59:48;;;;;;;1.45;1.20;;;;;;;6.26;53.99;96226.56;6133831;23;20016;-86
2023/12/19 02:02:16;;;;;;;1.50;1.08;;;;;;;5.69;55.20;96228.53;6134040;23;20009;-86
2023/12/19 02:04:42;;;;;;;3.13;2.50;;;;;;;5.53;56.68;96228.13;6183198;23;20104;-86
2023/12/19 02:07:07;;;;;;;3.97;2.60;;;;;;;5.36;57.24;96238.00;6158234;23;20033;-86
2023/12/19 02:09:34;;;;;;;3.90;2.50;;;;;;;5.02;58.22;96234.66;6158268;23;20091;-87
2023/12/19 02:12:00;;;;;;;3.63;2.95;;;;;;;4.97;57.80;96240.16;6158876;23;20040;-86
2023/12/19 02:14:25;;;;;;;4.30;3.00;;;;;;;5.01;57.66;96233.84;6158692;23;20015;-86
2023/12/19 02:16:51;;;;;;;3.40;2.50;;;;;;;4.77;58.13;96218.47;6158403;23;20013;-87
2023/12/19 02:19:16;;;;;;;3.28;2.20;;;;;;;4.66;58.49;96211.59;6133958;23;20009;-86
2023/12/19 02:24:07;;;;;;;3.17;2.42;;;;;;;4.99;57.32;96204.78;6178918;23;20025;-86
2023/12/19 02:26:33;;;;;;;3.75;2.65;;;;;;;5.08;56.79;96216.13;6134085;23;20016;-87
2023/12/19 02:28:59;;;;;;;4.10;3.17;;;;;;;4.90;57.78;96203.72;6158330;23;20009;-86
2023/12/19 02:31:25;;;;;;;4.75;3.72;;;;;;;4.61;58.58;96195.66;6158924;23;20077;-86
2023/12/19 02:33:50;;;;;;;7.55;5.13;;;;;;;4.65;58.80;96193.66;6183930;23;20001;-86
2023/12/19 02:36:16;;;;;;;6.70;5.18;;;;;;;4.69;59.09;96198.44;6183185;23;20043;-86
2023/12/19 02:38:44;;;;;;;8.80;5.72;;;;;;;4.47;59.75;96193.28;6182661;23;20012;-86
2023/12/19 02:43:35;;;;;;;8.10;5.93;;;;;;;4.44;60.00;96167.78;6184726;22;20021;-86
2023/12/19 02:46:03;;;;;;;9.20;6.30;;;;;;;4.61;59.16;96156.19;6134182;23;20235;-86
2023/12/19 02:48:28;;;;;;;9.77;6.57;;;;;;;4.43;59.25;96166.94;6135147;23;20119;-86
2023/12/19 02:50:54;;;;;;;7.22;5.10;;;;;;;4.62;59.29;96156.03;6158012;23;20084;-87
2023/12/19 02:53:19;;;;;;;6.70;4.32;;;;;;;4.49;58.90;96140.72;6158862;23;20044;-86
2023/12/19 02:55:45;;;;;;;6.93;5.10;;;;;;;4.54;59.22;96132.63;6134241;23;20008;-86
2023/12/19 02:58:10;;;;;;;6.13;4.25;;;;;;;4.42;58.75;96124.09;6158330;23;20001;-86
2023/12/19 03:00:36;;;;;;;7.07;4.25;;;;;;;4.64;58.18;96143.03;6133467;23;20013;-86
2023/12/19 03:03:02;;;;;;;5.78;4.35;;;;;;;4.39;58.88;96134.63;6183451;23;20008;-86
2023/12/19 03:05:27;;;;;;;6.30;4.72;;;;;;;4.50;59.10;96126.06;6158333;23;20012;-86
2023/12/19 03:07:54;;;;;;;5.40;3.65;;;;;;;4.39;59.43;96126.06;6158063;23;20020;-86
2023/12/19 03:10:20;;;;;;;4.70;3.65;;;;;;;4.54;58.17;96114.59;6182710;23;20009;-86
2023/12/19 03:12:45;;;;;;;5.93;4.00;;;;;;;4.16;59.08;96112.38;6157866;23;20020;-86
2023/12/19 03:15:11;;;;;;;5.20;3.47;;;;;;;4.25;58.91;96109.91;6133376;23;20009;-86
2023/12/19 03:17:36;;;;;;;6.43;4.28;;;;;;;4.36;58.60;96111.69;6182850;23;20020;-87
2023/12/19 03:20:02;;;;;;;5.65;4.18;;;;;;;4.19;59.35;96112.13;6156768;23;20041;-86
2023/12/19 03:22:27;;;;;;;6.05;3.83;;;;;;;4.33;58.67;96103.38;6157218;23;20013;-86
2023/12/19 03:24:55;;;;;;;6.40;4.32;;;;;;;4.39;58.56;96108.03;6133029;23;20005;-86
2023/12/19 03:27:21;;;;;;;5.85;4.35;;;;;;;4.10;59.61;96098.22;6182538;23;20009;-86
2023/12/19 03:29:47;;;;;;;10.88;6.80;;;;;;;4.36;59.36;96110.84;6157777;23;20013;-86
2023/12/19 03:32:12;;;;;;;8.05;6.00;;;;;;;4.35;58.88;96107.47;6156935;23;20020;-86
2023/12/19 03:34:41;;;;;;;8.27;6.03;;;;;;;4.14;59.43;96093.66;6132179;23;20005;-86
2023/12/19 03:37:06;;;;;;;7.32;5.13;;;;;;;4.09;59.33;96106.84;6133706;23;20103;-86
2023/12/19 03:39:31;;;;;;;6.95;4.93;;;;;;;4.01;59.59;96084.25;6132254;23;20048;-86
2023/12/19 03:41:57;;;;;;;6.57;5.13;;;;;;;3.97;60.24;96103.44;6133267;23;20009;-86
2023/12/19 03:44:22;;;;;;;6.57;4.40;;;;;;;4.06;60.07;96107.09;6109077;23;20016;-86
2023/12/19 03:46:50;;;;;;;5.90;4.25;;;;;;;4.19;59.60;96122.41;6157240;23;20012;-86
2023/12/19 03:49:16;;;;;;;7.82;5.80;;;;;;;4.20;60.37;96118.94;6157647;23;20012;-86
2023/12/19 03:51:41;;;;;;;9.32;5.10;;;;;;;4.28;60.09;96132.88;6106953;23;20037;-85
2023/12/19 03:54:07;;;;;;;7.57;4.72;;;;;;;4.29;59.17;96131.09;6132763;23;20013;-86
2023/12/19 03:56:32;;;;;;;6.38;4.20;;;;;;;3.97;59.81;96141.25;6133192;23;20013;-86
2023/12/19 03:58:58;;;;;;;5.72;4.10;;;;;;;3.83;60.35;96143.09;6133087;23;20020;-86
2023/12/19 04:01:25;;;;;;;6.82;4.72;;;;;;;4.08;59.42;96151.56;6108863;23;20013;-86
2023/12/19 04:03:50;;;;;;;7.25;4.93;;;;;;;3.94;59.73;96139.72;6133871;23;20044;-86
2023/12/19 04:06:16;;;;;;;9.85;6.75;;;;;;;4.00;60.48;96146.16;6158849;23;20083;-86
2023/12/19 04:08:41;;;;;;;10.65;6.95;;;;;;;3.78;61.29;96137.44;6160033;23;20087;-85
2023/12/19 04:11:07;;;;;;;10.80;7.13;;;;;;;3.76;61.70;96134.16;6158862;23;20016;-86
2023/12/19 04:13:32;;;;;;;9.77;6.63;;;;;;;3.94;59.90;96115.72;6134767;23;20013;-86
2023/12/19 04:15:58;;;;;;;10.80;7.30;;;;;;;3.90;60.60;96138.28;6110938;23;20013;-86
2023/12/19 04:18:23;;;;;;;10.93;7.38;;;;;;;3.83;60.81;96131.97;6134750;23;20050;-85
2023/12/19 04:20:51;;;;;;;11.32;6.50;;;;;;;3.77;60.05;96120.38;6159604;23;20009;-86
2023/12/19 04:23:19;;;;;;;9.73;6.55;;;;;;;3.71;60.67;96137.09;6134561;23;20023;-86
2023/12/19 04:25:46;;;;;;;10.02;7.07;;;;;;;3.70;60.33;96137.19;6135130;23;20005;-86
2023/12/19 04:28:12;;;;;;;13.48;8.05;;;;;;;3.45;61.63;96107.31;6111759;23;20015;-87
2023/12/19 04:30:37;;;;;;;9.80;6.20;;;;;;;3.75;60.69;96116.25;6134695;23;20009;-86
2023/12/19 04:33:03;;;;;;;10.85;7.10;;;;;;;3.79;60.67;96105.66;6240751;22;20023;-85
2023/12/19 04:35:28;;;;;;;10.77;6.95;;;;;;;3.56;60.40;96106.50;6224565;22;20022;-86
2023/12/19 04:37:53;;;;;;;15.18;8.68;;;;;;;3.09;62.14;96102.13;6249468;22;20003;-86
2023/12/19 04:40:19;;;;;;;14.32;8.88;;;;;;;2.92;62.00;96105.06;6249639;22;20057;-86
2023/12/19 04:42:44;;;;;;;15.18;9.20;;;;;;;2.05;66.00;96107.59;6224885;22;20007;-87
2023/12/19 04:45:10;;;;;;;12.48;7.60;;;;;;;2.62;63.54;96098.59;6224758;22;20004;-86
2023/12/19 04:47:36;;;;;;;7.05;4.38;;;;;;;3.30;61.18;96088.66;6250325;22;20008;-86
2023/12/19 04:50:03;;;;;;;6.93;4.88;;;;;;;3.37;61.11;96089.88;6249723;22;20003;-86
2023/12/19 04:52:28;;;;;;;3.45;2.70;;;;;;;3.65;59.53;96088.63;6224417;22;20022;-86
2023/12/19 04:54:55;;;;;;;3.17;2.25;;;;;;;4.01;58.82;96079.13;6224344;22;20031;-86
2023/12/19 04:57:20;;;;;;;1.95;1.60;;;;;;;3.98;59.21;96075.94;6224157;22;20098;-86
2023/12/19 04:59:47;;;;;;;3.25;2.10;;;;;;;4.10;59.06;96077.59;6249687;22;20075;-86
2023/12/19 05:02:13;;;;;;;3.08;2.20;;;;;;;4.20;58.72;96075.16;6224018;22;20061;-86
2023/12/19 05:04:38;;;;;;;4.55;2.10;;;;;;;4.38;58.07;96085.78;6224339;22;20011;-86
2023/12/19 05:07:04;;;;;;;3.80;2.65;;;;;;;4.23;58.02;96082.66;6224515;22;20007;-86
2023/12/19 05:09:29;;;;;;;3.25;2.42;;;;;;;4.37;57.91;96079.00;6223217;22;20086;-86
2023/12/19 05:11:58;;;;;;;3.22;2.30;;;;;;;4.33;58.18;96082.78;6222290;22;20012;-86
2023/12/19 05:14:24;;;;;;;4.43;3.10;;;;;;;4.22;57.92;96084.38;6248924;22;20065;-87
2023/12/19 05:16:51;;;;;;;4.50;2.90;;;;;;;4.17;58.46;96071.06;6249060;22;20004;-86
2023/12/19 05:19:17;;;;;;;4.13;3.00;;;;;;;4.23;58.73;96069.78;6249623;22;20038;-85
2023/12/19 05:21:42;;;;;;;2.47;1.95;;;;;;;3.81;58.20;96072.06;6249064;22;20007;-86
2023/12/19 05:24:11;;;;;;;3.60;1.92;;;;;;;3.88;58.78;96073.25;6223972;22;20007;-86
2023/12/19 05:26:36;;;;;;;2.53;1.60;;;;;;;4.06;58.23;96065.91;6224369;22;20027;-86
2023/12/19 05:29:02;;;;;;;2.08;1.40;;;;;;;4.43;57.25;96058.75;6224261;22;20011;-86
2023/12/19 05:31:29;;;;;;;1.73;1.30;;;;;;;4.72;57.06;96078.84;6224191;22;20007;-86
2023/12/19 05:33:54;;;;;;;3.88;1.60;;;;;;;4.78;56.02;96068.06;6223698;22;20020;-85
2023/12/19 05:36:20;;;;;;;2.25;1.65;;;;;;;4.98;56.08;96088.88;6249140;22;20002;-86
2023/12/19 05:38:46;;;;;;;2.53;1.92;;;;;;;4.66;56.59;96093.06;6198790;22;20045;-86
2023/12/19 05:41:14;;;;;;;4.07;1.80;;;;;;;4.70;56.14;96081.56;6223786;22;20067;-86
2023/12/19 05:43:43;;;;;;;2.58;1.70;;;;;;;4.85;56.32;96097.56;6224088;22;20090;-86
2023/12/19 05:46:09;;;;;;;2.70;1.88;;;;;;;4.63;56.17;96102.78;6249034;22;20004;-86
2023/12/19 05:48:35;;;;;;;8.43;4.93;;;;;;;3.97;57.92;96110.34;6248788;22;20069;-86
2023/12/19 05:51:03;;;;;;;11.63;6.60;;;;;;;3.64;59.15;96115.31;6198616;22;20098;-86
2023/12/19 05:53:29;;;;;;;10.15;6.82;;;;;;;3.45;59.58;96108.13;6199777;22;20023;-86
2023/12/19 05:55:54;;;;;;;9.85;6.47;;;;;;;3.42;59.89;96108.34;6223815;22;20011;-86
2023/12/19 05:58:21;;;;;;;8.18;5.35;;;;;;;3.41;58.67;96117.00;6224048;22;20008;-86
2023/12/19 06:00:48;;;;;;;6.03;4.30;;;;;;;3.33;58.92;96114.13;6223729;22;20003;-86
2023/12/19 06:03:14;;;;;;;7.22;3.88;;;;;;;3.18;60.12;96095.50;6224205;22;20011;-86
2023/12/19 06:05:39;;;;;;;3.88;2.42;;;;;;;3.40;59.67;96096.53;6223709;22;20058;-86
2023/12/19 06:08:06;;;;;;;5.13;2.72;;;;;;;3.65;59.30;96098.94;6199066;22;20008;-86
2023/12/19 06:10:35;;;;;;;3.58;2.20;;;;;;;3.90;57.86;96087.66;6248911;22;20031;-85
2023/12/19 06:13:04;;;;;;;3.17;2.22;;;;;;;3.97;57.92;96097.50;6198537;22;20008;-86
2023/12/19 06:15:30;;;;;;;3.35;2.40;;;;;;;4.15;57.42;96101.25;6199077;22;20015;-86
2023/12/19 06:17:55;;;;;;;3.42;2.40;;;;;;;4.15;57.40;96103.84;6248174;22;20008;-86
2023/12/19 06:20:20;;;;;;;6.63;3.42;;;;;;;4.21;57.72;96105.13;6198602;22;20011;-86
2023/12/19 06:22:49;;;;;;;4.68;2.78;;;;;;;4.11;58.26;96086.94;6198771;22;20019;-86
2023/12/19 06:25:14;;;;;;;3.75;3.03;;;;;;;4.36;57.88;96097.97;6224290;22;20008;-86
2023/12/19 06:27:42;;;;;;;4.10;3.47;;;;;;;4.21;58.05;96098.22;6223495;22;20050;-85
2023/12/19 06:30:08;;;;;;;4.60;3.20;;;;;;;4.49;57.84;96104.66;6223542;22;20065;-86
2023/12/19 06:32:36;;;;;;;4.90;3.83;;;;;;;4.37;57.88;96094.47;6223987;22;20014;-86
2023/12/19 06:35:07;;;;;;;5.10;3.70;;;;;;;4.14;57.53;96098.81;6223227;22;20055;-86
2023/12/19 06:37:33;;;;;;;4.80;3.28;;;;;;;4.19;57.69;96092.38;6223804;22;20004;-86
2023/12/19 06:40:02;;;;;;;4.25;3.00;;;;;;;4.26;57.70;96095.28;6223295;22;20099;-86
2023/12/19 06:42:28;;;;;;;12.30;7.13;;;;;;;4.33;57.85;96087.91;6248307;22;20035;-86
2023/12/19 06:44:53;;;;;;;6.63;4.25;;;;;;;4.40;56.98;96083.91;6197821;22;20012;-86
2023/12/19 06:47:18;;;;;;;8.35;4.88;;;;;;;4.43;57.20;96099.13;6223472;22;20062;-86
2023/12/19 06:49:48;;;;;;;5.97;3.22;;;;;;;4.50;57.02;96101.13;6222957;22;20019;-86
2023/12/19 06:52:16;;;;;;;2.38;1.88;;;;;;;4.26;57.57;96090.13;6199357;22;20015;-86
2023/12/19 06:54:41;;;;;;;3.85;2.00;;;;;;;4.36;56.92;96083.34;6222927;22;20004;-86
2023/12/19 06:57:06;;;;;;;2.25;1.70;;;;;;;4.60;56.57;96088.34;6222923;22;20014;-86
2023/12/19 06:59:33;;;;;;;3.00;2.20;;;;;;;4.62;56.58;96096.78;6222945;22;20010;-86
2023/12/19 07:02:03;;;;;;;3.22;2.03;;;;;;;4.49;56.81;96096.94;6246699;22;20082;-86
2023/12/19 07:04:29;;;;;;;2.95;2.28;;;;;;;4.36;58.08;96095.38;6222917;22;20039;-86
2023/12/19 07:06:54;;;;;;;3.47;2.42;;;;;;;4.41;57.99;96075.25;6223394;22;20035;-86
2023/12/19 07:09:20;;;;;;;3.28;2.35;;;;;;;4.58;57.14;96084.25;6248431;22;20011;-85
2023/12/19 07:11:45;;;;;;;3.97;2.20;;;;;;;4.55;56.90;96080.19;6248069;22;20014;-86
2023/12/19 07:14:13;;;;;;;2.78;2.10;;;;;;;4.78;57.05;96073.22;6248190;22;20055;-86
2023/12/19 07:16:39;;;;;;;3.58;2.20;;;;;;;4.88;56.16;96075.91;6248140;22;20027;-86
2023/12/19 07:19:05;;;;;;;2.72;1.80;;;;;;;4.86;56.12;96064.88;6223146;22;20011;-86
2023/12/19 07:21:32;;;;;;;2.53;1.90;;;;;;;4.81;56.28;96060.06;6223250;22;20012;-86
2023/12/19 07:23:59;;;;;;;2.30;1.70;;;;;;;5.14;54.99;96060.09;6247555;22;20058;-86
2023/12/19 07:26:26;;;;;;;1.73;1.42;;;;;;;5.15;54.14;96054.81;6222943;22;20004;-86
2023/12/19 07:28:52;;;;;;;2.08;1.58;;;;;;;5.19;54.95;96047.66;6223024;22;20018;-85
2023/12/19 07:31:31;;;;;;;2.30;1.55;;;;;;;5.15;54.62;96056.59;6222797;22;20004;-85
2023/12/19 07:34:03;;;;;;;2.60;1.42;;;;;;;5.14;54.97;96053.19;6247940;22;20043;-86
2023/12/19 07:36:30;;;;;;;2.95;1.40;;;;;;;5.55;53.13;96055.94;6247921;22;20011;-86
2023/12/19 07:38:55;;;;;;;2.03;1.55;;;;;;;5.54;53.57;96049.13;6197728;22;20016;-85
2023/12/19 07:41:23;;;;;;;1.70;1.15;;;;;;;5.45;52.89;96037.81;6247980;22;20034;-86
2023/12/19 07:43:49;;;;;;;1.35;0.90;;;;;;;5.61;52.12;96039.94;6248227;22;20004;-86
2023/12/19 07:46:14;;;;;;;1.40;0.98;;;;;;;5.73;52.63;96044.09;6248246;22;19999;-86
2023/12/19 07:48:40;;;;;;;1.08;0.80;;;;;;;5.76;52.76;96038.69;6198278;22;20012;-86
2023/12/19 07:51:07;;;;;;;1.20;1.08;;;;;;;5.81;52.79;96031.38;6222235;22;20057;-86
2023/12/19 07:56:03;;;;;;;1.92;0.80;;;;;;;5.92;51.27;96021.91;6245400;22;20020;-85
2023/12/19 07:58:32;;;;;;;1.10;1.00;;;;;;;5.93;50.90;96014.03;6246976;22;20011;-86
2023/12/19 08:00:57;;;;;;;0.82;0.60;;;;;;;6.25;50.10;96007.94;6246912;22;20011;-86
2023/12/19 08:03:28;;;;;;;1.25;0.60;;;;;;;6.89;48.99;96008.47;6221754;22;20016;-86
2023/12/19 08:05:56;;;;;;;1.25;0.63;;;;;;;7.83;48.32;96006.06;6222204;22;20016;-86
2023/12/19 08:08:26;;;;;;;1.35;0.60;;;;;;;9.39;45.19;96002.56;6222641;22;20008;-85
2023/12/19 08:10:52;;;;;;;2.43;0.80;;;;;;;10.85;42.61;95992.22;6222062;22;20008;-86
2023/12/19 08:13:20;;;;;;;1.08;0.70;;;;;;;12.17;39.38;95993.00;6222452;22;20081;-86
2023/12/19 08:15:48;;;;;;;0.80;0.70;;;;;;;13.20;37.75;95966.63;6247370;22;20014;-87
2023/12/19 08:18:14;;;;;;;0.60;0.60;;;;;;;13.93;36.82;95959.13;6247113;22;20089;-86
2023/12/19 08:20:42;;;;;;;0.90;0.65;;;;;;;14.75;34.04;95945.06;6221524;22;20008;-86
2023/12/19 08:23:07;;;;;;;1.05;0.60;;;;;;;14.85;33.38;95950.81;6220072;22;20033;-85
2023/12/19 08:25:33;;;;;;;0.70;0.68;;;;;;;15.20;32.40;95939.66;6246401;22;20035;-85
2023/12/19 08:27:59;;;;;;;0.77;0.60;;;;;;;15.27;32.29;95940.53;6220450;22;20012;-87
2023/12/19 08:30:27;;;;;;;1.50;1.10;;;;;;;16.01;31.66;95939.22;6219949;22;20045;-86
2023/12/19 08:32:55;;;;;;;2.03;1.50;;;;;;;15.92;33.11;95932.53;6196556;22;20014;-86
2023/12/19 08:35:21;;;;;;;2.83;1.90;;;;;;;16.57;31.46;95920.69;6220556;22;20063;-86
2023/12/19 08:37:48;;;;;;;2.25;1.90;;;;;;;17.12;30.91;95927.72;6245596;22;20109;-87
2023/12/19 08:40:13;;;;;;;3.75;2.00;;;;;;;17.48;29.56;95919.41;6220497;22;20077;-86
2023/12/19 08:42:42;;;;;;;5.75;4.20;;;;;;;18.01;28.17;95917.72;6245670;22;20000;-87
2023/12/19 08:45:23;;;;;;;65.15;41.83;;;;;;;18.10;29.19;95916.50;6195636;22;20012;-86
2023/12/19 08:47:53;;;;;;;126.35;75.65;;;;;;;18.41;28.49;95913.16;6245577;22;20008;-87
2023/12/19 08:50:19;;;;;;;116.35;69.30;;;;;;;18.50;29.02;95897.91;6245800;22;20004;-87
2023/12/19 08:52:45;;;;;;;54.45;35.85;;;;;;;18.38;30.56;95910.13;6246359;22;20067;-87
2023/12/19 08:55:11;;;;;;;50.53;32.63;;;;;;;18.14;30.74;95912.41;6245917;22;20016;-86
2023/12/19 08:57:45;;;;;;;14.55;10.65;;;;;;;17.89;30.27;95902.56;6247579;22;20003;-87
2023/12/19 09:00:21;;;;;;;3.47;3.03;;;;;;;17.24;31.78;95905.06;6221929;22;20024;-87
2023/12/19 09:02:47;;;;;;;13.70;8.30;;;;;;;18.00;30.51;95919.56;6247350;22;20003;-87
2023/12/19 09:05:14;;;;;;;12.77;8.60;;;;;;;17.78;32.31;95935.56;6222326;22;20015;-86
2023/12/19 09:07:40;;;;;;;18.55;13.60;;;;;;;17.18;32.91;95932.97;6247395;22;20027;-87
2023/12/19 09:10:07;;;;;;;8.63;6.80;;;;;;;17.18;32.33;95927.69;6221945;22;20014;-86
2023/12/19 09:12:36;;;;;;;9.10;5.40;;;;;;;16.83;32.10;95918.34;6247699;22;20065;-87
2023/12/19 09:15:02;;;;;;;3.53;3.22;;;;;;;17.87;30.64;95932.75;6222358;22;20045;-87
2023/12/19 09:17:28;;;;;;;3.30;3.00;;;;;;;16.92;32.08;95932.91;6221293;22;20018;-87
2023/12/19 09:19:55;;;;;;;3.35;3.05;;;;;;;16.00;33.27;95927.94;6219085;22;20004;-87
2023/12/19 09:22:22;;;;;;;3.58;2.75;;;;;;;16.05;33.11;95926.53;6221357;22;20015;-87
2023/12/19 09:24:47;;;;;;;4.00;3.60;;;;;;;16.23;33.48;95930.25;6245958;22;20061;-87
2023/12/19 09:27:13;;;;;;;3.42;3.10;;;;;;;15.72;35.36;95935.00;6221509;22;20035;-87
2023/12/19 09:29:39;;;;;;;3.40;3.10;;;;;;;16.49;33.22;95915.63;6221540;22;20019;-86
2023/12/19 09:32:07;;;;;;;3.72;2.70;;;;;;;15.94;34.75;95909.53;6222988;22;20019;-87
2023/12/19 09:34:32;;;;;;;3.13;2.75;;;;;;;16.33;33.44;95908.09;6247354;22;19991;-87
2023/12/19 09:37:00;;;;;;;3.30;2.58;;;;;;;16.23;34.76;95905.84;6247144;22;20011;-87
2023/12/19 09:39:25;;;;;;;4.00;2.95;;;;;;;16.60;35.21;95906.34;6197473;22;20015;-88
2023/12/19 09:41:51;;;;;;;3.50;2.60;;;;;;;16.50;34.76;95904.09;6222053;22;20069;-87
2023/12/19 09:44:17;;;;;;;2.72;2.53;;;;;;;16.95;34.14;95896.56;6221835;22;20095;-87
2023/12/19 09:46:49;;;;;;;3.35;3.05;;;;;;;16.76;33.87;95900.72;6220481;22;20011;-87
2023/12/19 09:49:18;;;;;;;3.53;2.90;;;;;;;16.76;35.31;95897.31;6246377;22;20091;-87
2023/12/19 09:51:45;;;;;;;4.40;2.90;;;;;;;15.96;36.33;95886.53;6222776;22;20069;-87
2023/12/19 09:54:10;;;;;;;2.70;2.50;;;;;;;16.29;34.52;95881.41;6222395;22;20034;-87
2023/12/19 09:56:36;;;;;;;2.88;2.40;;;;;;;15.64;35.60;95894.78;6221243;22;20016;-86
2023/12/19 09:59:04;;;;;;;2.60;2.40;;;;;;;15.58;35.95;95906.06;6221628;22;20003;-87
2023/12/19 10:01:30;;;;;;;2.63;2.42;;;;;;;15.32;36.73;95895.38;6247438;22;20000;-87
2023/12/19 10:06:22;;;;;;;5.07;4.00;;;;;;;14.70;38.37;95923.03;6211830;23;20031;-86
2023/12/19 10:08:52;;;;;;;4.70;3.90;;;;;;;14.17;39.91;95934.50;6166637;23;20023;-86
2023/12/19 10:11:18;;;;;;;6.90;5.63;;;;;;;13.35;41.76;95937.97;6217236;23;20016;-85
2023/12/19 10:13:46;;;;;;;9.82;6.70;;;;;;;12.32;42.76;95950.38;6191989;23;20015;-86
2023/12/19 10:16:19;;;;;;;10.02;6.97;;;;;;;11.32;44.28;95948.16;6192578;23;20012;-85
2023/12/19 10:18:53;;;;;;;8.05;6.43;;;;;;;10.73;45.63;95947.47;6216431;23;20008;-86
2023/12/19 10:21:22;;;;;;;15.65;7.10;;;;;;;9.77;48.67;95946.81;6217297;23;20039;-85
2023/12/19 10:23:47;;;;;;;26.63;7.70;;;;;;;9.38;49.09;95961.97;6216169;23;20011;-85
2023/12/19 10:26:13;;;;;;;16.27;7.63;;;;;;;9.11;49.67;95981.09;6192332;23;20004;-85
2023/12/19 10:28:40;;;;;;;304.65;16.33;;;;;;;8.10;52.43;95975.97;6192243;23;20019;-86
2023/12/19 10:31:05;;;;;;;589.47;23.02;;;;;;;7.73;52.76;95977.59;6192455;23;20011;-86
2023/12/19 10:33:39;;;;;;;22.45;8.05;;;;;;;7.44;54.16;95982.84;6218024;23;20012;-86
2023/12/19 10:36:05;;;;;;;83.40;9.65;;;;;;;7.64;52.77;95955.94;6218124;23;20027;-86
2023/12/19 10:38:47;;;;;;;223.60;13.60;;;;;;;7.49;52.60;95959.94;6217860;23;20081;-85
2023/12/19 10:41:39;;;;;;;336.52;17.73;;;;;;;6.88;54.09;95958.53;6217402;23;20007;-86
2023/12/19 10:44:04;;;;;;;38.28;9.40;;;;;;;6.03;57.39;95967.63;6227354;22;20046;-86
2023/12/19 10:46:31;;;;;;;100.88;10.80;;;;;;;6.12;56.92;95955.69;6220688;22;20015;-86
2023/12/19 10:49:00;;;;;;;79.32;10.98;;;;;;;5.71;59.40;95971.13;6248345;22;20011;-85
2023/12/19 10:51:33;;;;;;;182.63;12.98;;;;;;;6.01;58.50;95954.03;6224002;22;20086;-86
2023/12/19 10:54:14;;;;;;;158.98;12.88;;;;;;;5.64;59.50;95954.53;6198069;22;19999;-87
2023/12/19 10:56:59;;;;;;;13.95;7.78;;;;;;;6.06;57.64;95944.13;6248762;22;20004;-85
2023/12/19 10:59:58;;;;;;;18.48;9.13;;;;;;;6.12;58.13;95925.50;6247617;22;20008;-85
2023/12/19 11:02:47;;;;;;;15.85;9.18;;;;;;;6.14;59.85;95928.78;6247943;22;20000;-86
2023/12/19 11:05:41;;;;;;;11.48;8.27;;;;;;;6.42;58.66;95910.88;6247557;22;20008;-86
2023/12/19 11:11:05;;;;;;;10.68;7.97;;;;;;;7.04;57.25;95894.13;6272750;22;20024;-85
2023/12/19 11:13:33;;;;;;;10.25;7.57;;;;;;;7.44;56.25;95900.84;6207920;22;20039;-86
2023/12/19 11:16:06;;;;;;;9.52;7.32;;;;;;;7.37;56.32;95886.84;6248042;22;20003;-86
2023/12/19 11:18:44;;;;;;;10.80;7.10;;;;;;;7.73;55.33;95881.78;6247340;22;20003;-86
2023/12/19 11:21:19;;;;;;;8.98;6.65;;;;;;;7.75;54.28;95866.94;6247852;22;20004;-86
2023/12/19 11:24:04;;;;;;;7.32;5.95;;;;;;;7.90;54.60;95867.25;6248255;22;20093;-86
2023/12/19 11:26:52;;;;;;;7.20;5.53;;;;;;;7.82;53.41;95849.84;6247838;22;20015;-86
2023/12/19 11:29:46;;;;;;;7.30;5.45;;;;;;;7.39;53.70;95838.34;6248002;22;20061;-86
2023/12/19 11:32:27;;;;;;;7.28;5.75;;;;;;;7.48;55.11;95830.66;6247517;22;20041;-86
2023/12/19 11:35:13;;;;;;;7.35;5.60;;;;;;;8.06;54.77;95812.22;6247815;22;20104;-86
2023/12/19 11:37:46;;;;;;;7.78;6.00;;;;;;;8.30;54.01;95790.91;6247106;22;20008;-86
2023/12/19 11:40:45;;;;;;;7.47;6.03;;;;;;;8.81;55.10;95798.91;6247734;22;20086;-86
2023/12/19 11:43:31;;;;;;;4.40;3.63;;;;;;;8.78;49.78;95781.06;6247753;22;20061;-86
2023/12/19 11:46:03;;;;;;;5.60;3.67;;;;;;;9.39;50.30;95772.31;6219897;22;20018;-87
2023/12/19 11:48:39;;;;;;;5.68;3.80;;;;;;;9.79;48.86;95752.63;6247499;22;20023;-86
2023/12/19 11:51:09;;;;;;;3.80;3.03;;;;;;;10.14;46.73;95750.72;6247575;22;20015;-86
2023/12/19 11:53:38;;;;;;;5.40;3.85;;;;;;;10.46;49.49;95743.94;6247497;22;20000;-86